Time,TemperatureF,DewpointF,PressureIn,WindDirection,WindDirectionDegrees,WindSpeedMPH,WindSpeedGustMPH,Humidity,HourlyPrecipIn,Conditions,Clouds,dailyrainin,SoftwareType,DateUTC
2013-09-07 00:00:00,73.0,66.8,29.99,NNE,14,0.0,0.0,81,0.00,,,1.00,Wunderground v.1.15,2013-09-07 04:00:00,
2013-09-07 00:05:00,73.0,66.8,29.98,NNE,14,0.0,0.0,81,0.00,,,0.00,Wunderground v.1.15,2013-09-07 04:05:00,
2013-09-07 00:10:00,72.9,66.7,29.98,NNE,14,0.0,0.0,81,0.00,,,0.00,Wunderground v.1.15,2013-09-07 04:10:00,
2013-09-07 00:15:00,72.8,66.6,29.98,NNE,14,0.0,0.0,81,0.00,,,0.00,Wunderground v.1.15,2013-09-07 04:15:00,
2013-09-07 00:20:00,72.7,66.5,29.98,NNE,14,0.0,0.0,81,0.00,,,0.00,Wunderground v.1.15,2013-09-07 04:20:00,
2013-09-07 00:25:00,72.6,66.4,29.98,NNE,14,0.0,0.0,81,0.00,,,0.00,Wunderground v.1.15,2013-09-07 04:25:00,
2013-09-07 00:30:00,72.5,66.3,29.99,NNE,14,0.0,0.0,81,0.00,,,0.00,Wunderground v.1.15,2013-09-07 04:30:00,
2013-09-07 00:35:00,72.4,66.2,29.99,NNE,14,0.0,0.0,81,0.00,,,0.00,Wunderground v.1.15,2013-09-07 04:35:00,
2013-09-07 00:40:00,72.5,66.3,29.98,NNE,14,0.0,0.0,81,0.00,,,0.00,Wunderground v.1.15,2013-09-07 04:40:00,
2013-09-07 00:50:00,72.4,66.2,29.98,NNE,14,0.0,0.0,81,0.00,,,0.00,Wunderground v.1.15,2013-09-07 04:50:00,
2013-09-07 00:55:00,72.2,66.0,29.98,NNE,14,0.0,0.0,81,0.00,,,0.00,Wunderground v.1.15,2013-09-07 04:55:00,
2013-09-07 01:00:00,72.1,65.9,29.97,NNE,14,0.0,0.0,81,0.00,,,0.00,Wunderground v.1.15,2013-09-07 05:00:00,
2013-09-07 01:05:00,71.9,65.8,29.97,NNE,14,0.0,0.0,81,0.00,,,0.00,Wunderground v.1.15,2013-09-07 05:05:00,
2013-09-07 01:10:00,71.7,65.6,29.96,NNE,14,0.0,0.0,81,0.00,,,0.00,Wunderground v.1.15,2013-09-07 05:10:00,
2013-09-07 01:15:00,71.6,65.5,29.96,NNE,14,0.0,0.0,81,0.00,,,0.00,Wunderground v.1.15,2013-09-07 05:15:00,
2013-09-07 01:20:00,71.5,65.4,29.97,NNE,14,0.0,0.0,81,0.00,,,0.00,Wunderground v.1.15,2013-09-07 05:20:00,
2013-09-07 01:25:00,71.3,65.2,29.97,NNE,14,0.0,0.0,81,0.00,,,0.00,Wunderground v.1.15,2013-09-07 05:25:00,
2013-09-07 01:30:00,71.2,65.1,29.97,NNE,14,0.0,0.0,81,0.00,,,0.00,Wunderground v.1.15,2013-09-07 05:30:00,
2013-09-07 01:40:00,70.9,64.8,29.97,NNE,14,0.0,0.0,81,0.00,,,0.00,Wunderground v.1.15,2013-09-07 05:40:00,
2013-09-07 01:45:00,71.0,64.9,29.97,NNE,14,0.0,0.0,81,0.00,,,0.00,Wunderground v.1.15,2013-09-07 05:45:00,
2013-09-07 01:50:00,71.0,64.9,29.97,NNE,14,0.0,0.0,81,0.00,,,0.00,Wunderground v.1.15,2013-09-07 05:50:00,
2013-09-07 01:55:00,70.9,64.8,29.97,NNE,14,0.0,0.0,81,0.00,,,0.00,Wunderground v.1.15,2013-09-07 05:55:00,
2013-09-07 02:00:00,70.8,64.7,29.97,NNE,14,0.0,0.0,81,0.00,,,0.00,Wunderground v.1.15,2013-09-07 06:00:00,
2013-09-07 02:05:00,70.7,64.6,29.96,NNE,14,0.0,0.0,81,0.00,,,0.00,Wunderground v.1.15,2013-09-07 06:05:00,
2013-09-07 02:10:00,70.7,64.6,29.97,NNE,14,0.0,0.0,81,0.00,,,0.00,Wunderground v.1.15,2013-09-07 06:10:00,
2013-09-07 02:15:00,70.7,64.6,29.97,NNE,14,0.0,0.0,81,0.00,,,0.00,Wunderground v.1.15,2013-09-07 06:15:00,
2013-09-07 02:20:00,70.7,64.6,29.96,NNE,14,0.0,0.0,81,0.00,,,0.00,Wunderground v.1.15,2013-09-07 06:20:00,
2013-09-07 02:25:00,70.8,64.7,29.96,NNE,14,0.0,0.0,81,0.00,,,0.00,Wunderground v.1.15,2013-09-07 06:25:00,
2013-09-07 02:30:00,71.0,64.9,29.97,NNE,14,0.0,0.0,81,0.00,,,0.00,Wunderground v.1.15,2013-09-07 06:30:00,
2013-09-07 02:35:00,71.3,65.2,29.96,NNE,14,0.0,0.0,81,0.00,,,0.00,Wunderground v.1.15,2013-09-07 06:35:00,
2013-09-07 02:40:00,71.9,65.8,29.96,NNE,14,0.0,0.0,81,0.00,,,0.00,Wunderground v.1.15,2013-09-07 06:40:00,
2013-09-07 02:45:00,72.2,66.0,29.96,NNE,14,0.0,0.0,81,0.00,,,0.00,Wunderground v.1.15,2013-09-07 06:45:00,
2013-09-07 02:50:00,72.3,66.1,29.96,NNE,14,0.0,0.0,81,0.00,,,0.00,Wunderground v.1.15,2013-09-07 06:50:00,
2013-09-07 02:55:00,72.4,66.2,29.96,NNE,14,0.0,0.0,81,0.00,,,0.00,Wunderground v.1.15,2013-09-07 06:55:00,
2013-09-07 03:00:00,72.4,66.2,29.95,NNE,14,0.0,0.0,81,0.00,,,0.00,Wunderground v.1.15,2013-09-07 07:00:00,
2013-09-07 03:05:00,72.4,66.2,29.96,NNE,14,0.0,0.0,81,0.00,,,0.00,Wunderground v.1.15,2013-09-07 07:05:00,
2013-09-07 03:10:00,72.3,66.1,29.95,NNE,14,0.0,0.0,81,0.00,,,0.00,Wunderground v.1.15,2013-09-07 07:10:00,
2013-09-07 03:15:00,72.2,66.0,29.95,NNE,14,0.0,0.0,81,0.00,,,0.00,Wunderground v.1.15,2013-09-07 07:15:00,
2013-09-07 03:20:00,72.1,65.9,29.95,NNE,14,0.0,0.0,81,0.00,,,0.00,Wunderground v.1.15,2013-09-07 07:20:00,
2013-09-07 03:25:00,72.0,65.8,29.95,NNE,14,0.0,0.0,81,0.00,,,0.00,Wunderground v.1.15,2013-09-07 07:25:00,
2013-09-07 03:30:00,71.9,65.8,29.95,NNE,14,0.0,0.0,81,0.00,,,0.00,Wunderground v.1.15,2013-09-07 07:30:00,
2013-09-07 03:35:00,71.9,65.8,29.95,NNE,14,0.0,0.0,81,0.00,,,0.00,Wunderground v.1.15,2013-09-07 07:35:00,
2013-09-07 03:40:00,71.9,65.8,29.95,NNE,14,0.0,0.0,81,0.00,,,0.00,Wunderground v.1.15,2013-09-07 07:40:00,
2013-09-07 03:45:00,71.9,65.8,29.95,NNE,14,0.0,0.0,81,0.00,,,0.00,Wunderground v.1.15,2013-09-07 07:45:00,
2013-09-07 03:50:00,71.8,65.7,29.95,NNE,14,0.0,0.0,81,0.00,,,0.00,Wunderground v.1.15,2013-09-07 07:50:00,
2013-09-07 04:00:00,71.7,65.6,29.95,NNE,14,0.0,0.0,81,0.00,,,0.00,Wunderground v.1.15,2013-09-07 08:00:00,
2013-09-07 04:05:00,71.5,65.4,29.95,NNE,14,0.0,0.0,81,0.00,,,0.00,Wunderground v.1.15,2013-09-07 08:05:00,
2013-09-07 04:10:00,71.3,65.2,29.95,NNE,14,0.0,0.0,81,0.00,,,0.00,Wunderground v.1.15,2013-09-07 08:10:00,
2013-09-07 04:15:00,71.2,65.1,29.95,NNE,14,0.0,0.0,81,0.00,,,0.00,Wunderground v.1.15,2013-09-07 08:15:00,
2013-09-07 04:20:00,71.1,65.0,29.95,NNE,14,0.0,0.0,81,0.00,,,0.00,Wunderground v.1.15,2013-09-07 08:20:00,
2013-09-07 04:25:00,71.0,64.9,29.95,NNE,14,0.0,0.0,81,0.00,,,0.00,Wunderground v.1.15,2013-09-07 08:25:00,
2013-09-07 04:30:00,71.1,65.0,29.94,NNE,14,0.0,0.0,81,0.00,,,0.00,Wunderground v.1.15,2013-09-07 08:30:00,
2013-09-07 04:35:00,71.3,65.2,29.94,NNE,14,0.0,0.0,81,0.00,,,0.00,Wunderground v.1.15,2013-09-07 08:35:00,
2013-09-07 04:40:00,71.3,65.2,29.94,NNE,14,0.0,0.0,81,0.00,,,0.00,Wunderground v.1.15,2013-09-07 08:40:00,
2013-09-07 04:45:00,71.3,65.2,29.94,NNE,14,0.0,0.0,81,0.00,,,0.00,Wunderground v.1.15,2013-09-07 08:45:00,
2013-09-07 04:50:00,71.2,65.1,29.94,NNE,14,0.0,0.0,81,0.00,,,0.00,Wunderground v.1.15,2013-09-07 08:50:00,
2013-09-07 04:55:00,71.0,64.9,29.94,NNE,14,0.0,0.0,81,0.00,,,0.00,Wunderground v.1.15,2013-09-07 08:55:00,
2013-09-07 05:00:00,70.7,64.6,29.94,NNE,14,0.0,0.0,81,0.00,,,0.00,Wunderground v.1.15,2013-09-07 09:00:00,
2013-09-07 05:05:00,70.4,64.3,29.94,NNE,14,0.0,0.0,81,0.00,,,0.00,Wunderground v.1.15,2013-09-07 09:05:00,
2013-09-07 05:15:00,70.2,64.1,29.94,NNE,14,0.0,0.0,81,0.00,,,0.00,Wunderground v.1.15,2013-09-07 09:15:00,
2013-09-07 05:20:00,70.1,64.0,29.94,NNE,14,0.0,0.0,81,0.00,,,0.00,Wunderground v.1.15,2013-09-07 09:20:00,
2013-09-07 05:25:00,70.0,63.9,29.94,NNE,14,0.0,0.0,81,0.00,,,0.00,Wunderground v.1.15,2013-09-07 09:25:00,
2013-09-07 05:30:00,69.9,63.8,29.94,NNE,14,0.0,0.0,81,0.00,,,0.00,Wunderground v.1.15,2013-09-07 09:30:00,
2013-09-07 05:35:00,69.8,63.7,29.94,NNE,14,0.0,0.0,81,0.00,,,0.00,Wunderground v.1.15,2013-09-07 09:35:00,
2013-09-07 05:40:00,69.9,63.8,29.94,NNE,14,0.0,0.0,81,0.00,,,0.00,Wunderground v.1.15,2013-09-07 09:40:00,
2013-09-07 05:50:00,70.4,64.3,29.94,NNE,14,0.0,0.0,81,0.00,,,0.00,Wunderground v.1.15,2013-09-07 09:50:00,
2013-09-07 06:00:00,70.9,64.8,29.94,NNE,14,0.0,0.0,81,0.00,,,0.00,Wunderground v.1.15,2013-09-07 10:00:00,
2013-09-07 06:05:00,71.3,65.2,29.94,NNE,14,0.0,2.0,81,0.00,,,0.00,Wunderground v.1.15,2013-09-07 10:05:00,
2013-09-07 06:10:00,71.6,65.5,29.94,NNE,14,1.0,1.0,81,0.00,,,0.00,Wunderground v.1.15,2013-09-07 10:10:00,
2013-09-07 06:15:00,71.7,65.6,29.94,NNE,14,1.0,1.0,81,0.00,,,0.00,Wunderground v.1.15,2013-09-07 10:15:00,
2013-09-07 06:20:00,71.6,65.5,29.94,NNE,14,0.0,0.0,81,0.00,,,0.00,Wunderground v.1.15,2013-09-07 10:20:00,
2013-09-07 06:30:00,71.3,65.2,29.94,NNE,14,0.0,0.0,81,0.00,,,0.00,Wunderground v.1.15,2013-09-07 10:30:00,
2013-09-07 06:35:00,71.3,65.2,29.94,NNE,14,0.0,0.0,81,0.00,,,0.00,Wunderground v.1.15,2013-09-07 10:35:00,
2013-09-07 06:40:00,71.2,65.1,29.94,NNE,14,0.0,0.0,81,0.00,,,0.00,Wunderground v.1.15,2013-09-07 10:40:00,
2013-09-07 06:45:00,71.3,65.2,29.95,NNE,14,0.0,0.0,81,0.00,,,0.00,Wunderground v.1.15,2013-09-07 10:45:00,
2013-09-07 06:50:00,71.3,65.2,29.95,NNE,14,0.0,0.0,81,0.00,,,0.00,Wunderground v.1.15,2013-09-07 10:50:00,
2013-09-07 06:55:00,71.4,65.3,29.95,NNE,14,0.0,0.0,81,0.00,,,0.00,Wunderground v.1.15,2013-09-07 10:55:00,
2013-09-07 07:00:00,71.5,65.4,29.95,NNE,14,0.0,0.0,81,0.00,,,0.00,Wunderground v.1.15,2013-09-07 11:00:00,
2013-09-07 07:10:00,71.6,65.5,29.96,NNE,14,0.0,0.0,81,0.00,,,0.00,Wunderground v.1.15,2013-09-07 11:10:00,
2013-09-07 07:20:00,71.6,65.5,29.96,NNE,14,0.0,0.0,81,0.00,,,0.00,Wunderground v.1.15,2013-09-07 11:20:00,
2013-09-07 07:25:00,71.6,65.5,29.96,NNE,14,0.0,0.0,81,0.00,,,0.00,Wunderground v.1.15,2013-09-07 11:25:00,
2013-09-07 07:30:00,71.7,65.6,29.95,NNE,14,0.0,0.0,81,0.00,,,0.00,Wunderground v.1.15,2013-09-07 11:30:00,
2013-09-07 07:35:00,71.8,65.7,29.96,NNE,14,0.0,0.0,81,0.00,,,0.00,Wunderground v.1.15,2013-09-07 11:35:00,
2013-09-07 07:40:00,71.9,65.8,29.96,NNE,14,0.0,0.0,81,0.00,,,0.00,Wunderground v.1.15,2013-09-07 11:40:00,
2013-09-07 07:45:00,72.1,65.9,29.96,NNE,14,0.0,0.0,81,0.00,,,0.00,Wunderground v.1.15,2013-09-07 11:45:00,
2013-09-07 07:50:00,72.2,66.0,29.96,NNE,14,0.0,0.0,81,0.00,,,0.00,Wunderground v.1.15,2013-09-07 11:50:00,
2013-09-07 07:55:00,72.4,66.2,29.96,NNE,14,0.0,0.0,81,0.00,,,0.00,Wunderground v.1.15,2013-09-07 11:55:00,
2013-09-07 08:00:00,72.8,66.6,29.97,NNE,14,0.0,0.0,81,0.00,,,0.00,Wunderground v.1.15,2013-09-07 12:00:00,
2013-09-07 08:05:00,73.2,67.0,29.97,NNE,14,0.0,0.0,81,0.00,,,0.00,Wunderground v.1.15,2013-09-07 12:05:00,
2013-09-07 08:10:00,73.5,66.9,29.97,NNE,14,0.0,0.0,80,0.00,,,0.00,Wunderground v.1.15,2013-09-07 12:10:00,
2013-09-07 08:15:00,73.4,67.2,29.96,NNE,14,1.0,5.0,81,0.00,,,0.00,Wunderground v.1.15,2013-09-07 12:15:00,
2013-09-07 08:20:00,73.4,66.9,29.96,NNE,14,2.0,2.0,80,0.00,,,0.00,Wunderground v.1.15,2013-09-07 12:20:00,
2013-09-07 08:25:00,73.5,66.9,29.96,NNE,14,2.0,3.0,80,0.00,,,0.00,Wunderground v.1.15,2013-09-07 12:25:00,
2013-09-07 08:30:00,73.3,66.8,29.96,NNE,14,3.0,3.0,80,0.00,,,0.00,Wunderground v.1.15,2013-09-07 12:30:00,
2013-09-07 08:35:00,73.3,66.8,29.96,NNE,14,4.0,4.0,80,0.00,,,0.00,Wunderground v.1.15,2013-09-07 12:35:00,
2013-09-07 08:40:00,73.4,66.9,29.96,NNE,14,3.0,3.0,80,0.00,,,0.00,Wunderground v.1.15,2013-09-07 12:40:00,
2013-09-07 08:45:00,73.5,66.9,29.96,NNE,14,3.0,5.0,80,0.00,,,0.00,Wunderground v.1.15,2013-09-07 12:45:00,
2013-09-07 08:50:00,73.5,66.9,29.96,NNE,14,3.0,4.0,80,0.00,,,0.00,Wunderground v.1.15,2013-09-07 12:50:00,
2013-09-07 08:55:00,73.4,66.9,29.97,NNE,14,4.0,4.0,80,0.00,,,0.00,Wunderground v.1.15,2013-09-07 12:55:00,
2013-09-07 09:00:00,73.6,67.0,29.97,NNE,14,4.0,4.0,80,0.00,,,0.00,Wunderground v.1.15,2013-09-07 13:00:00,
2013-09-07 09:05:00,73.7,67.5,29.97,NNE,14,3.0,5.0,81,0.00,,,0.00,Wunderground v.1.15,2013-09-07 13:05:00,
2013-09-07 09:10:00,73.8,67.6,29.97,NNE,14,4.0,6.0,81,0.00,,,0.00,Wunderground v.1.15,2013-09-07 13:10:00,
2013-09-07 09:15:00,74.0,67.4,29.97,NNE,14,4.0,6.0,80,0.00,,,0.00,Wunderground v.1.15,2013-09-07 13:15:00,
2013-09-07 09:20:00,74.1,67.5,29.98,NNE,14,2.0,4.0,80,0.00,,,0.00,Wunderground v.1.15,2013-09-07 13:20:00,
2013-09-07 09:30:00,74.2,67.6,29.97,NNE,14,1.0,4.0,80,0.00,,,0.00,Wunderground v.1.15,2013-09-07 13:30:00,
2013-09-07 09:35:00,74.2,67.6,29.97,NNE,14,2.0,10.0,80,0.00,,,0.00,Wunderground v.1.15,2013-09-07 13:35:00,
2013-09-07 09:40:00,74.3,67.7,29.98,North,11,4.0,6.0,80,0.00,,,0.00,Wunderground v.1.15,2013-09-07 13:40:00,
2013-09-07 09:50:00,74.2,67.6,29.98,North,10,4.0,6.0,80,0.00,,,0.00,Wunderground v.1.15,2013-09-07 13:50:00,
2013-09-07 09:55:00,74.4,67.8,29.98,North,11,4.0,6.0,80,0.00,,,0.00,Wunderground v.1.15,2013-09-07 13:55:00,
2013-09-07 10:00:00,74.7,68.1,29.98,North,11,4.0,4.0,80,0.00,,,0.00,Wunderground v.1.15,2013-09-07 14:00:00,
2013-09-07 10:05:00,74.9,68.3,29.99,North,10,3.0,4.0,80,0.00,,,0.00,Wunderground v.1.15,2013-09-07 14:05:00,
2013-09-07 10:10:00,74.9,68.3,29.99,North,11,3.0,5.0,80,0.00,,,0.00,Wunderground v.1.15,2013-09-07 14:10:00,
2013-09-07 10:20:00,75.1,68.5,29.99,North,10,2.0,3.0,80,0.00,,,0.00,Wunderground v.1.15,2013-09-07 14:20:00,
2013-09-07 10:25:00,75.3,68.7,29.99,North,10,1.0,3.0,80,0.00,,,0.00,Wunderground v.1.15,2013-09-07 14:25:00,
2013-09-07 10:30:00,75.5,68.9,29.99,North,10,1.0,5.0,80,0.00,,,0.00,Wunderground v.1.15,2013-09-07 14:30:00,
2013-09-07 10:35:00,75.7,69.1,29.99,North,10,1.0,5.0,80,0.00,,,0.00,Wunderground v.1.15,2013-09-07 14:35:00,
2013-09-07 10:40:00,76.0,69.4,30.00,North,11,3.0,3.0,80,0.00,,,0.00,Wunderground v.1.15,2013-09-07 14:40:00,
2013-09-07 10:45:00,76.1,69.5,30.00,North,11,3.0,3.0,80,0.00,,,0.00,Wunderground v.1.15,2013-09-07 14:45:00,
2013-09-07 10:50:00,76.2,69.6,30.00,North,11,2.0,3.0,80,0.00,,,0.00,Wunderground v.1.15,2013-09-07 14:50:00,
2013-09-07 10:55:00,76.2,69.6,30.00,North,11,3.0,3.0,80,0.00,,,0.00,Wunderground v.1.15,2013-09-07 14:55:00,
2013-09-07 11:00:00,76.7,70.1,29.99,North,10,2.0,2.0,80,0.00,,,0.00,Wunderground v.1.15,2013-09-07 15:00:00,
2013-09-07 11:05:00,77.2,70.5,30.00,North,11,2.0,2.0,80,0.00,,,0.00,Wunderground v.1.15,2013-09-07 15:05:00,
2013-09-07 11:10:00,77.4,70.7,30.00,North,10,2.0,2.0,80,0.00,,,0.00,Wunderground v.1.15,2013-09-07 15:10:00,
2013-09-07 11:15:00,77.5,70.8,30.00,North,10,2.0,2.0,80,0.00,,,0.00,Wunderground v.1.15,2013-09-07 15:15:00,
2013-09-07 11:25:00,77.8,71.1,30.00,North,11,1.0,4.0,80,0.00,,,0.00,Wunderground v.1.15,2013-09-07 15:25:00,
2013-09-07 11:30:00,78.0,71.3,30.00,North,11,2.0,2.0,80,0.00,,,0.00,Wunderground v.1.15,2013-09-07 15:30:00,
2013-09-07 11:35:00,78.8,72.1,30.00,North,11,2.0,3.0,80,0.00,,,0.00,Wunderground v.1.15,2013-09-07 15:35:00,
2013-09-07 11:40:00,79.1,72.4,29.99,NNE,12,2.0,2.0,80,0.00,,,0.00,Wunderground v.1.15,2013-09-07 15:40:00,
2013-09-07 11:45:00,79.4,73.1,29.99,NNE,14,2.0,2.0,81,0.00,,,0.00,Wunderground v.1.15,2013-09-07 15:45:00,
2013-09-07 11:50:00,79.8,73.4,29.99,NNE,17,2.0,3.0,81,0.00,,,0.00,Wunderground v.1.15,2013-09-07 15:50:00,
2013-09-07 11:55:00,79.9,73.5,29.99,NNE,15,2.0,3.0,81,0.00,,,0.00,Wunderground v.1.15,2013-09-07 15:55:00,
2013-09-07 12:05:00,80.0,73.6,29.99,NNE,15,3.0,4.0,81,0.00,,,0.00,Wunderground v.1.15,2013-09-07 16:05:00,
2013-09-07 12:15:00,80.5,74.1,29.99,NNE,15,1.0,2.0,81,0.00,,,0.00,Wunderground v.1.15,2013-09-07 16:15:00,
2013-09-07 12:20:00,81.2,74.8,29.99,NNE,16,1.0,1.0,81,0.00,,,0.00,Wunderground v.1.15,2013-09-07 16:20:00,
2013-09-07 12:30:00,82.1,75.7,29.98,NNE,16,1.0,1.0,81,0.00,,,0.00,Wunderground v.1.15,2013-09-07 16:30:00,
2013-09-07 12:35:00,82.6,76.2,29.98,NNE,15,0.0,1.0,81,0.00,,,0.00,Wunderground v.1.15,2013-09-07 16:35:00,
2013-09-07 12:40:00,82.6,76.2,29.98,NNE,16,1.0,4.0,81,0.00,,,0.00,Wunderground v.1.15,2013-09-07 16:40:00,
2013-09-07 12:45:00,83.0,76.6,29.98,NNE,15,2.0,4.0,81,0.00,,,0.00,Wunderground v.1.15,2013-09-07 16:45:00,
2013-09-07 12:50:00,83.4,77.0,29.98,NNE,16,2.0,3.0,81,0.00,,,0.00,Wunderground v.1.15,2013-09-07 16:50:00,
2013-09-07 13:00:00,83.0,76.6,29.98,NNE,16,2.0,2.0,81,0.00,,,0.00,Wunderground v.1.15,2013-09-07 17:00:00,
2013-09-07 13:05:00,83.4,77.0,29.98,NNE,16,1.0,2.0,81,0.00,,,0.00,Wunderground v.1.15,2013-09-07 17:05:00,
2013-09-07 13:15:00,82.9,76.1,29.98,NNE,15,3.0,3.0,80,0.00,,,0.00,Wunderground v.1.15,2013-09-07 17:15:00,
2013-09-07 13:20:00,83.4,76.6,29.97,NNE,16,1.0,1.0,80,0.00,,,0.00,Wunderground v.1.15,2013-09-07 17:20:00,
2013-09-07 13:30:00,84.7,77.8,29.97,NNE,16,0.0,0.0,80,0.00,,,0.00,Wunderground v.1.15,2013-09-07 17:30:00,
2013-09-07 13:35:00,84.7,77.8,29.97,NNE,15,0.0,0.0,80,0.00,,,0.00,Wunderground v.1.15,2013-09-07 17:35:00,
2013-09-07 13:40:00,84.8,77.9,29.97,NNE,16,0.0,0.0,80,0.00,,,0.00,Wunderground v.1.15,2013-09-07 17:40:00,
2013-09-07 13:45:00,85.2,78.3,29.97,NNE,16,0.0,0.0,80,0.00,,,0.00,Wunderground v.1.15,2013-09-07 17:45:00,
2013-09-07 13:55:00,85.7,78.4,29.96,North,360,1.0,3.0,79,0.00,,,0.00,Wunderground v.1.15,2013-09-07 17:55:00,
2013-09-07 14:00:00,85.8,78.1,29.96,North,5,1.0,1.0,78,0.00,,,0.00,Wunderground v.1.15,2013-09-07 18:00:00,
2013-09-07 14:05:00,85.9,78.2,29.95,North,5,0.0,1.0,78,0.00,,,0.00,Wunderground v.1.15,2013-09-07 18:05:00,
2013-09-07 14:10:00,86.3,78.6,29.95,North,5,0.0,0.0,78,0.00,,,0.00,Wunderground v.1.15,2013-09-07 18:10:00,
2013-09-07 14:15:00,86.2,78.5,29.95,North,5,0.0,0.0,78,0.00,,,0.00,Wunderground v.1.15,2013-09-07 18:15:00,
2013-09-07 14:20:00,85.6,77.9,29.94,North,5,1.0,1.0,78,0.00,,,0.00,Wunderground v.1.15,2013-09-07 18:20:00,
2013-09-07 14:25:00,86.0,78.3,29.94,North,360,1.0,1.0,78,0.00,,,0.00,Wunderground v.1.15,2013-09-07 18:25:00,
2013-09-07 14:30:00,85.9,78.2,29.94,North,360,1.0,5.0,78,0.00,,,0.00,Wunderground v.1.15,2013-09-07 18:30:00,
2013-09-07 14:35:00,85.3,77.3,29.94,North,5,2.0,5.0,77,0.00,,,0.00,Wunderground v.1.15,2013-09-07 18:35:00,
2013-09-07 14:40:00,85.0,76.6,29.94,North,5,1.0,1.0,76,0.00,,,0.00,Wunderground v.1.15,2013-09-07 18:40:00,
2013-09-07 14:50:00,85.8,77.8,29.93,North,5,0.0,0.0,77,0.00,,,0.00,Wunderground v.1.15,2013-09-07 18:50:00,
2013-09-07 14:55:00,86.5,78.4,29.93,North,360,0.0,0.0,77,0.00,,,0.00,Wunderground v.1.15,2013-09-07 18:55:00,
2013-09-07 15:00:00,86.3,78.2,29.92,North,5,0.0,0.0,77,0.00,,,0.00,Wunderground v.1.15,2013-09-07 19:00:00,
2013-09-07 15:05:00,85.9,77.5,29.92,North,5,0.0,0.0,76,0.00,,,0.00,Wunderground v.1.15,2013-09-07 19:05:00,
2013-09-07 15:10:00,85.7,77.7,29.91,North,360,0.0,0.0,77,0.00,,,0.00,Wunderground v.1.15,2013-09-07 19:10:00,
2013-09-07 15:20:00,86.8,79.1,29.91,North,5,0.0,0.0,78,0.00,,,0.00,Wunderground v.1.15,2013-09-07 19:20:00,
2013-09-07 15:25:00,87.1,78.6,29.91,North,5,0.0,1.0,76,0.00,,,0.00,Wunderground v.1.15,2013-09-07 19:25:00,
2013-09-07 15:30:00,87.1,79.4,29.91,North,360,0.0,0.0,78,0.00,,,0.00,Wunderground v.1.15,2013-09-07 19:30:00,
2013-09-07 15:35:00,87.1,79.0,29.91,North,360,0.0,0.0,77,0.00,,,0.00,Wunderground v.1.15,2013-09-07 19:35:00,
2013-09-07 15:40:00,87.2,79.5,29.91,North,360,0.0,0.0,78,0.00,,,0.00,Wunderground v.1.15,2013-09-07 19:40:00,
2013-09-07 15:45:00,86.6,78.1,29.91,North,360,0.0,0.0,76,0.00,,,0.00,Wunderground v.1.15,2013-09-07 19:45:00,
2013-09-07 15:50:00,86.3,78.2,29.91,North,360,0.0,0.0,77,0.00,,,0.00,Wunderground v.1.15,2013-09-07 19:50:00,
2013-09-07 15:55:00,86.5,78.0,29.91,North,5,0.0,0.0,76,0.00,,,0.00,Wunderground v.1.15,2013-09-07 19:55:00,
2013-09-07 16:00:00,86.7,78.6,29.90,North,5,0.0,0.0,77,0.00,,,0.00,Wunderground v.1.15,2013-09-07 20:00:00,
2013-09-07 16:05:00,87.0,79.3,29.90,North,5,0.0,0.0,78,0.00,,,0.00,Wunderground v.1.15,2013-09-07 20:05:00,
2013-09-07 16:10:00,87.4,79.3,29.90,North,360,0.0,0.0,77,0.00,,,0.00,Wunderground v.1.15,2013-09-07 20:10:00,
2013-09-07 16:15:00,88.0,79.9,29.89,North,5,0.0,0.0,77,0.00,,,0.00,Wunderground v.1.15,2013-09-07 20:15:00,
2013-09-07 16:20:00,88.4,80.3,29.89,North,360,0.0,0.0,77,0.00,,,0.00,Wunderground v.1.15,2013-09-07 20:20:00,
2013-09-07 16:25:00,87.5,78.6,29.89,North,5,1.0,1.0,75,0.00,,,0.00,Wunderground v.1.15,2013-09-07 20:25:00,
2013-09-07 16:30:00,86.3,77.8,29.90,North,5,2.0,4.0,76,0.00,,,0.00,Wunderground v.1.15,2013-09-07 20:30:00,
2013-09-07 16:35:00,84.5,76.1,29.90,ENE,69,4.0,5.0,76,0.00,,,0.00,Wunderground v.1.15,2013-09-07 20:35:00,
2013-09-07 16:45:00,81.8,74.3,29.90,East,87,3.0,6.0,78,0.00,,,0.00,Wunderground v.1.15,2013-09-07 20:45:00,
2013-09-07 16:50:00,80.8,73.3,29.89,East,98,4.0,4.0,78,0.00,,,0.00,Wunderground v.1.15,2013-09-07 20:50:00,
2013-09-07 16:55:00,80.4,73.3,29.89,ESE,113,4.0,4.0,79,0.00,,,0.00,Wunderground v.1.15,2013-09-07 20:55:00,
2013-09-07 17:00:00,79.8,72.7,29.89,ESE,114,3.0,5.0,79,0.00,,,0.00,Wunderground v.1.15,2013-09-07 21:00:00,
2013-09-07 17:05:00,79.2,72.1,29.90,ESE,112,4.0,5.0,79,0.00,,,0.00,Wunderground v.1.15,2013-09-07 21:05:00,
2013-09-07 17:10:00,78.7,72.0,29.92,NNE,26,3.0,5.0,80,0.00,,,0.00,Wunderground v.1.15,2013-09-07 21:10:00,
2013-09-07 17:15:00,77.9,71.2,29.92,North,355,4.0,6.0,80,0.00,,,0.00,Wunderground v.1.15,2013-09-07 21:15:00,
2013-09-07 17:20:00,75.6,69.4,29.91,North,360,8.0,13.0,81,0.42,,,0.02,Wunderground v.1.15,2013-09-07 21:20:00,
2013-09-07 17:30:00,73.8,68.0,29.92,North,5,3.0,3.0,82,0.43,,,0.15,Wunderground v.1.15,2013-09-07 21:30:00,
2013-09-07 17:35:00,74.4,68.5,29.91,NE,42,0.0,3.0,82,0.13,,,0.16,Wunderground v.1.15,2013-09-07 21:35:00,
2013-09-07 17:40:00,75.0,69.1,29.92,NE,43,0.0,0.0,82,0.06,,,0.16,Wunderground v.1.15,2013-09-07 21:40:00,
2013-09-07 17:45:00,75.3,69.4,29.91,NE,43,0.0,0.0,82,0.04,,,0.16,Wunderground v.1.15,2013-09-07 21:45:00,
2013-09-07 17:55:00,76.2,70.3,29.90,NE,43,0.0,0.0,82,0.00,,,0.16,Wunderground v.1.15,2013-09-07 21:55:00,
2013-09-07 18:00:00,77.0,71.1,29.90,NE,43,0.0,0.0,82,0.00,,,0.16,Wunderground v.1.15,2013-09-07 22:00:00,
2013-09-07 18:05:00,78.1,72.2,29.90,NE,43,0.0,0.0,82,0.00,,,0.16,Wunderground v.1.15,2013-09-07 22:05:00,
2013-09-07 18:10:00,78.6,72.6,29.90,NE,43,0.0,0.0,82,0.00,,,0.16,Wunderground v.1.15,2013-09-07 22:10:00,
2013-09-07 18:15:00,78.6,72.6,29.90,NE,42,0.0,0.0,82,0.00,,,0.16,Wunderground v.1.15,2013-09-07 22:15:00,
2013-09-07 18:20:00,78.7,72.7,29.90,NE,43,0.0,0.0,82,0.00,,,0.16,Wunderground v.1.15,2013-09-07 22:20:00,
2013-09-07 18:25:00,78.7,72.7,29.90,NE,42,1.0,1.0,82,0.00,,,0.16,Wunderground v.1.15,2013-09-07 22:25:00,
2013-09-07 18:30:00,78.7,72.7,29.91,NE,41,1.0,1.0,82,0.00,,,0.16,Wunderground v.1.15,2013-09-07 22:30:00,
2013-09-07 18:35:00,78.7,72.7,29.90,NE,42,0.0,1.0,82,0.00,,,0.16,Wunderground v.1.15,2013-09-07 22:35:00,
2013-09-07 18:40:00,78.7,72.7,29.91,NE,42,0.0,0.0,82,0.00,,,0.16,Wunderground v.1.15,2013-09-07 22:40:00,
2013-09-07 18:45:00,78.5,72.5,29.91,NE,42,0.0,0.0,82,0.00,,,0.16,Wunderground v.1.15,2013-09-07 22:45:00,
2013-09-07 18:50:00,78.5,72.5,29.91,NE,42,0.0,0.0,82,0.00,,,0.16,Wunderground v.1.15,2013-09-07 22:50:00,
2013-09-07 19:00:00,78.2,72.3,29.91,NE,42,0.0,0.0,82,0.00,,,0.16,Wunderground v.1.15,2013-09-07 23:00:00,
2013-09-07 19:05:00,78.1,72.2,29.91,NE,42,0.0,0.0,82,0.00,,,0.16,Wunderground v.1.15,2013-09-07 23:05:00,
2013-09-07 19:10:00,77.8,71.9,29.91,NE,41,0.0,0.0,82,0.00,,,0.16,Wunderground v.1.15,2013-09-07 23:10:00,
2013-09-07 19:15:00,77.7,71.8,29.91,NE,42,0.0,0.0,82,0.00,,,0.16,Wunderground v.1.15,2013-09-07 23:15:00,
2013-09-07 19:20:00,77.5,71.6,29.91,NE,41,0.0,0.0,82,0.00,,,0.16,Wunderground v.1.15,2013-09-07 23:20:00,
2013-09-07 19:30:00,77.1,71.2,29.91,NE,42,0.0,0.0,82,0.00,,,0.16,Wunderground v.1.15,2013-09-07 23:30:00,
2013-09-07 19:35:00,77.0,71.1,29.91,NE,41,0.0,0.0,82,0.00,,,0.16,Wunderground v.1.15,2013-09-07 23:35:00,
2013-09-07 19:45:00,76.6,70.7,29.91,NE,42,0.0,0.0,82,0.00,,,0.16,Wunderground v.1.15,2013-09-07 23:45:00,
2013-09-07 19:50:00,76.4,70.9,29.91,NE,42,0.0,0.0,83,0.00,,,0.16,Wunderground v.1.15,2013-09-07 23:50:00,
2013-09-07 19:55:00,76.1,70.2,29.92,NE,42,0.0,0.0,82,0.00,,,0.16,Wunderground v.1.15,2013-09-07 23:55:00,
2013-09-07 20:00:00,75.9,70.0,29.92,NE,41,0.0,0.0,82,0.00,,,0.16,Wunderground v.1.15,2013-09-08 00:00:00,
2013-09-07 20:05:00,75.7,70.2,29.93,NE,42,0.0,0.0,83,0.00,,,0.16,Wunderground v.1.15,2013-09-08 00:05:00,
2013-09-07 20:10:00,75.5,70.0,29.93,NE,41,0.0,0.0,83,0.00,,,0.16,Wunderground v.1.15,2013-09-08 00:10:00,
2013-09-07 20:15:00,75.3,69.8,29.93,NE,42,0.0,0.0,83,0.00,,,0.16,Wunderground v.1.15,2013-09-08 00:15:00,
2013-09-07 20:20:00,75.3,69.4,29.93,NE,41,0.0,0.0,82,0.00,,,0.16,Wunderground v.1.15,2013-09-08 00:20:00,
2013-09-07 20:25:00,75.3,69.4,29.93,NE,42,0.0,0.0,82,0.00,,,0.16,Wunderground v.1.15,2013-09-08 00:25:00,
2013-09-07 20:30:00,75.3,69.4,29.93,NE,42,0.0,0.0,82,0.00,,,0.16,Wunderground v.1.15,2013-09-08 00:30:00,
2013-09-07 20:35:00,75.3,69.4,29.93,NE,42,0.0,0.0,82,0.00,,,0.16,Wunderground v.1.15,2013-09-08 00:35:00,
2013-09-07 20:40:00,75.3,69.4,29.93,NE,42,0.0,0.0,82,0.00,,,0.16,Wunderground v.1.15,2013-09-08 00:40:00,
2013-09-07 20:45:00,75.3,69.4,29.93,NE,42,0.0,0.0,82,0.00,,,0.16,Wunderground v.1.15,2013-09-08 00:45:00,
2013-09-07 20:50:00,75.2,69.3,29.93,NE,41,0.0,0.0,82,0.00,,,0.16,Wunderground v.1.15,2013-09-08 00:50:00,
2013-09-07 20:55:00,75.4,69.9,29.93,NE,42,0.0,0.0,83,0.00,,,0.16,Wunderground v.1.15,2013-09-08 00:55:00,
2013-09-07 21:05:00,75.6,70.1,29.93,NE,42,0.0,0.0,83,0.00,,,0.16,Wunderground v.1.15,2013-09-08 01:05:00,
2013-09-07 21:10:00,75.5,70.0,29.93,NE,42,0.0,0.0,83,0.00,,,0.16,Wunderground v.1.15,2013-09-08 01:10:00,
2013-09-07 21:15:00,75.3,69.4,29.94,NE,42,0.0,0.0,82,0.00,,,0.16,Wunderground v.1.15,2013-09-08 01:15:00,
2013-09-07 21:20:00,75.2,69.3,29.94,NE,42,0.0,0.0,82,0.00,,,0.16,Wunderground v.1.15,2013-09-08 01:20:00,
2013-09-07 21:25:00,75.1,69.2,29.94,NE,42,0.0,0.0,82,0.00,,,0.16,Wunderground v.1.15,2013-09-08 01:25:00,
2013-09-07 21:30:00,75.0,69.1,29.94,NE,42,0.0,0.0,82,0.00,,,0.16,Wunderground v.1.15,2013-09-08 01:30:00,
2013-09-07 21:35:00,74.9,69.4,29.95,NE,42,0.0,0.0,83,0.00,,,0.16,Wunderground v.1.15,2013-09-08 01:35:00,
2013-09-07 21:40:00,74.7,69.2,29.95,NE,42,0.0,0.0,83,0.00,,,0.16,Wunderground v.1.15,2013-09-08 01:40:00,
2013-09-07 21:45:00,74.6,69.1,29.95,NE,41,0.0,0.0,83,0.00,,,0.16,Wunderground v.1.15,2013-09-08 01:45:00,
2013-09-07 21:50:00,74.6,69.1,29.95,NE,41,0.0,0.0,83,0.00,,,0.16,Wunderground v.1.15,2013-09-08 01:50:00,
2013-09-07 21:55:00,74.5,68.6,29.95,NE,42,0.0,0.0,82,0.00,,,0.16,Wunderground v.1.15,2013-09-08 01:55:00,
2013-09-07 22:00:00,74.4,68.5,29.95,NE,41,0.0,0.0,82,0.00,,,0.16,Wunderground v.1.15,2013-09-08 02:00:00,
2013-09-07 22:05:00,74.2,68.7,29.95,NE,42,0.0,0.0,83,0.00,,,0.16,Wunderground v.1.15,2013-09-08 02:05:00,
2013-09-07 22:15:00,73.9,68.4,29.95,NE,42,0.0,0.0,83,0.00,,,0.16,Wunderground v.1.15,2013-09-08 02:15:00,
2013-09-07 22:20:00,73.7,68.2,29.95,NE,41,0.0,0.0,83,0.00,,,0.16,Wunderground v.1.15,2013-09-08 02:20:00,
2013-09-07 22:25:00,73.7,68.2,29.95,NE,42,0.0,0.0,83,0.00,,,0.16,Wunderground v.1.15,2013-09-08 02:25:00,
2013-09-07 22:30:00,73.7,67.9,29.94,NE,42,0.0,0.0,82,0.00,,,0.16,Wunderground v.1.15,2013-09-08 02:30:00,
2013-09-07 22:35:00,73.6,67.8,29.95,NE,42,0.0,0.0,82,0.00,,,0.16,Wunderground v.1.15,2013-09-08 02:35:00,
2013-09-07 22:40:00,73.4,67.9,29.95,NE,42,0.0,0.0,83,0.00,,,0.16,Wunderground v.1.15,2013-09-08 02:40:00,
2013-09-07 22:45:00,73.3,67.8,29.94,NE,42,0.0,0.0,83,0.00,,,0.16,Wunderground v.1.15,2013-09-08 02:45:00,
2013-09-07 22:50:00,73.2,67.7,29.94,NE,42,0.0,0.0,83,0.00,,,0.16,Wunderground v.1.15,2013-09-08 02:50:00,
2013-09-07 22:55:00,73.1,67.6,29.95,NE,41,0.0,0.0,83,0.00,,,0.16,Wunderground v.1.15,2013-09-08 02:55:00,
2013-09-07 23:05:00,72.9,67.4,29.95,NE,42,0.0,0.0,83,0.00,,,0.16,Wunderground v.1.15,2013-09-08 03:05:00,
2013-09-07 23:15:00,72.9,67.4,29.94,NE,42,0.0,0.0,83,0.00,,,0.16,Wunderground v.1.15,2013-09-08 03:15:00,
2013-09-07 23:20:00,72.9,67.1,29.94,NE,41,0.0,0.0,82,0.00,,,0.16,Wunderground v.1.15,2013-09-08 03:20:00,
2013-09-07 23:25:00,72.8,67.0,29.94,NE,42,0.0,0.0,82,0.00,,,0.16,Wunderground v.1.15,2013-09-08 03:25:00,
2013-09-07 23:30:00,72.7,66.9,29.94,NE,42,0.0,0.0,82,0.00,,,0.16,Wunderground v.1.15,2013-09-08 03:30:00,
2013-09-07 23:35:00,72.6,66.8,29.94,NE,41,0.0,0.0,82,0.00,,,0.16,Wunderground v.1.15,2013-09-08 03:35:00,
2013-09-07 23:45:00,72.3,66.8,29.94,NE,41,0.0,0.0,83,0.00,,,0.16,Wunderground v.1.15,2013-09-08 03:45:00,
2013-09-07 23:50:00,72.2,66.7,29.93,NE,42,0.0,0.0,83,0.00,,,0.16,Wunderground v.1.15,2013-09-08 03:50:00,
2013-09-07 23:55:00,72.1,66.3,29.93,NE,42,0.0,0.0,82,0.00,,,0.16,Wunderground v.1.15,2013-09-08 03:55:00,